Time;durP1;ratioP1;P1;durP2;ratioP2;P2;SDS_P1;SDS_P2;PMS_P1;PMS_P2;Temp;Humidity;BMP_temperature;BMP_pressure;BME280_temperature;BME280_humidity;BME280_pressure;Samples;Min_cycle;Max_cycle;Signal;HPM_P1;HPM_P2
2021/10/29 00:01:01;;;;;;;101.93;66.18;;;;;;;-140.66;100.00;55571.53;4955876;29;20066;-70
2021/10/29 00:03:47;;;;;;;107.68;68.75;;;;;;;-140.66;100.00;55571.53;4942033;29;20027;-70
2021/10/29 00:06:33;;;;;;;110.88;68.65;;;;;;;-140.66;100.00;55571.53;4955747;29;20109;-71
2021/10/29 00:09:19;;;;;;;114.68;70.75;;;;;;;-140.66;100.00;55571.53;4955832;29;20413;-70
2021/10/29 02:05:09;;;;;;;101.57;60.78;;;;;;;-140.66;100.00;55571.53;4957078;29;20274;-70
2021/10/29 02:07:55;;;;;;;109.13;66.38;;;;;;;-140.66;100.00;55571.53;4960426;28;20465;-70
2021/10/29 03:45:02;;;;;;;129.13;79.67;;;;;;;-140.66;100.00;55571.53;6031607;23;20211;31
2021/10/29 03:47:55;;;;;;;134.68;82.50;;;;;;;-140.66;100.00;55571.53;4880186;29;20240;-71
2021/10/29 03:50:45;;;;;;;132.05;80.00;;;;;;;-140.66;100.00;55571.53;4880044;29;20408;-70
2021/10/29 03:56:22;;;;;;;133.75;81.22;;;;;;;-140.66;100.00;55571.53;4881227;29;20033;-70
2021/10/29 03:59:10;;;;;;;134.10;80.90;;;;;;;-140.66;100.00;55571.53;4881493;29;20036;-70
2021/10/29 04:01:56;;;;;;;132.05;83.57;;;;;;;-140.66;100.00;55571.53;4881914;29;20040;-71
2021/10/29 04:04:42;;;;;;;136.85;81.40;;;;;;;-140.66;100.00;55571.53;4881836;29;20036;-71
2021/10/29 04:07:28;;;;;;;120.13;74.28;;;;;;;-140.66;100.00;55571.53;4881811;29;20029;-71
2021/10/29 04:10:14;;;;;;;133.70;83.88;;;;;;;-140.66;100.00;55571.53;4881460;29;20064;-71
2021/10/29 04:13:02;;;;;;;103.03;65.13;;;;;;;-140.66;100.00;55571.53;4881853;29;20033;-70
2021/10/29 04:15:48;;;;;;;99.18;62.08;;;;;;;-140.66;100.00;55571.53;4881216;29;20028;-71
2021/10/29 04:18:34;;;;;;;101.20;61.28;;;;;;;-140.66;100.00;55571.53;4867880;29;20033;-72
2021/10/29 04:21:20;;;;;;;97.50;58.53;;;;;;;-140.66;100.00;55571.53;4881501;29;20120;-70
2021/10/29 04:24:07;;;;;;;96.07;58.03;;;;;;;-140.66;100.00;55571.53;4881387;29;20044;-71
2021/10/29 04:26:56;;;;;;;92.90;57.85;;;;;;;-140.66;100.00;55571.53;4881199;29;20037;-71
2021/10/29 04:29:42;;;;;;;85.65;54.70;;;;;;;-140.66;100.00;55571.53;4881383;29;20378;-71
2021/10/29 04:32:27;;;;;;;89.65;53.30;;;;;;;-140.66;100.00;55571.53;4881372;29;20029;-71
2021/10/29 04:35:14;;;;;;;91.57;55.50;;;;;;;-140.66;100.00;55571.53;4880586;29;20025;-71
2021/10/29 04:37:59;;;;;;;88.07;56.38;;;;;;;-140.66;100.00;55571.53;4881130;29;20033;-71
2021/10/29 04:40:45;;;;;;;95.50;56.92;;;;;;;-140.66;100.00;55571.53;4880666;29;20033;-71
2021/10/29 04:43:31;;;;;;;94.82;58.15;;;;;;;-140.66;100.00;55571.53;4881060;29;20066;-72
2021/10/29 04:46:16;;;;;;;101.53;58.67;;;;;;;-140.66;100.00;55571.53;4880783;29;20064;-71
2021/10/29 04:49:03;;;;;;;89.60;58.00;;;;;;;-140.66;100.00;55571.53;4882309;29;20039;-70
2021/10/29 04:51:49;;;;;;;88.05;56.53;;;;;;;-140.66;100.00;55571.53;4884926;29;20363;-71
2021/10/29 04:54:35;;;;;;;91.70;57.53;;;;;;;-140.66;100.00;55571.53;4885117;29;20059;-71
2021/10/29 04:57:21;;;;;;;78.30;51.53;;;;;;;-140.66;100.00;55571.53;4884696;29;20069;-70
2021/10/29 05:00:07;;;;;;;82.40;52.47;;;;;;;-140.66;100.00;55571.53;4885031;29;20037;-70
2021/10/29 05:02:54;;;;;;;78.68;53.75;;;;;;;-140.66;100.00;55571.53;4884633;29;20371;-72
2021/10/29 05:05:40;;;;;;;81.72;51.60;;;;;;;-140.66;100.00;55571.53;4885157;29;20128;-71
2021/10/29 05:08:26;;;;;;;74.35;47.70;;;;;;;-140.66;100.00;55571.53;4885055;29;20028;-71
2021/10/29 05:11:12;;;;;;;72.47;47.90;;;;;;;-140.66;100.00;55571.53;4885053;29;20040;-71
2021/10/29 05:13:57;;;;;;;71.63;46.25;;;;;;;-140.66;100.00;55571.53;4885133;29;20037;-70
2021/10/29 05:16:44;;;;;;;67.78;47.40;;;;;;;-140.66;100.00;55571.53;4871137;29;20025;-71
2021/10/29 05:19:29;;;;;;;74.65;48.63;;;;;;;-140.66;100.00;55571.53;4884175;29;20033;-70
2021/10/29 05:22:15;;;;;;;82.32;52.67;;;;;;;-140.66;100.00;55571.53;4884144;29;20044;-70
2021/10/29 05:25:01;;;;;;;76.07;49.88;;;;;;;-140.66;100.00;55571.53;4884791;29;20037;-70
2021/10/29 05:27:47;;;;;;;82.18;53.10;;;;;;;-140.66;100.00;55571.53;4884978;29;20029;-71
2021/10/29 06:19:36;;;;;;;92.65;57.97;;;;;;;-140.66;100.00;55571.53;5769349;23;20713;-70
2021/10/29 06:25:10;;;;;;;89.43;57.90;;;;;;;-140.66;100.00;55571.53;4958560;29;20465;-71
2021/10/29 06:28:17;;;;;;;84.43;55.70;;;;;;;-140.66;100.00;55571.53;4958670;29;20063;-71
2021/10/29 07:53:29;;;;;;;73.47;46.63;;;;;;;-140.66;100.00;55571.53;5105233;23;20099;-71
2021/10/29 07:56:15;;;;;;;63.60;42.38;;;;;;;-140.66;100.00;55571.53;4941524;29;20047;-71
2021/10/29 07:59:06;;;;;;;57.60;40.10;;;;;;;-140.66;100.00;55571.53;4955674;29;20066;-70
2021/10/29 08:01:52;;;;;;;58.15;38.55;;;;;;;-140.66;100.00;55571.53;4956257;29;20031;-70
2021/10/29 08:04:38;;;;;;;55.85;37.45;;;;;;;-140.66;100.00;55571.53;4956963;29;20035;-71
2021/10/29 08:07:25;;;;;;;58.83;38.15;;;;;;;-140.66;100.00;55571.53;4955738;29;20082;-70
2021/10/29 08:10:11;;;;;;;56.17;39.35;;;;;;;-140.66;100.00;55571.53;4956389;29;20027;-71
2021/10/29 08:12:57;;;;;;;55.38;38.50;;;;;;;-140.66;100.00;55571.53;4955275;29;20027;-71
2021/10/29 08:15:43;;;;;;;53.45;37.83;;;;;;;-140.66;100.00;55571.53;4955378;29;20126;-71
2021/10/29 08:18:30;;;;;;;49.80;36.30;;;;;;;-140.66;100.00;55571.53;4956436;29;20102;-71
2021/10/29 08:21:16;;;;;;;55.10;37.20;;;;;;;-140.66;100.00;55571.53;4955848;29;20114;-70
2021/10/29 08:24:01;;;;;;;52.40;35.38;;;;;;;-140.66;100.00;55571.53;4955735;28;20038;-70
2021/10/29 08:26:47;;;;;;;53.22;33.83;;;;;;;-140.66;100.00;55571.53;4956029;29;20028;-71
2021/10/29 08:29:33;;;;;;;52.42;30.88;;;;;;;-140.66;100.00;55571.53;4956586;29;20481;-71
2021/10/29 08:32:19;;;;;;;42.80;30.05;;;;;;;-140.66;100.00;55571.53;4956417;29;20027;-72
2021/10/29 08:35:06;;;;;;;43.85;31.20;;;;;;;-140.66;100.00;55571.53;4955700;29;20065;-71
2021/10/29 08:37:53;;;;;;;40.97;29.52;;;;;;;-140.66;100.00;55571.53;4955658;29;20454;-72
2021/10/29 08:40:39;;;;;;;46.42;30.65;;;;;;;-140.66;100.00;55571.53;4955408;29;20046;-71
2021/10/29 08:43:24;;;;;;;53.00;33.58;;;;;;;-140.66;100.00;55571.53;4955056;29;20031;-71
2021/10/29 08:46:11;;;;;;;47.90;33.75;;;;;;;-140.66;100.00;55571.53;4956047;29;20458;-71
2021/10/29 08:48:58;;;;;;;51.20;35.65;;;;;;;-140.66;100.00;55571.53;4942056;29;20394;-72
2021/10/29 08:51:45;;;;;;;61.90;39.67;;;;;;;-140.66;100.00;55571.53;4955415;29;20031;-72
2021/10/29 08:54:32;;;;;;;53.15;36.67;;;;;;;-140.66;100.00;55571.53;4955363;29;20035;-71
2021/10/29 08:57:18;;;;;;;57.83;37.60;;;;;;;-140.66;100.00;55571.53;4941873;29;20153;-71
2021/10/29 09:00:13;;;;;;;59.00;38.33;;;;;;;-140.66;100.00;55571.53;4955616;29;20098;-72
2021/10/29 09:06:21;;;;;;;53.30;36.70;;;;;;;-140.66;100.00;55571.53;4956656;28;20465;-71
2021/10/29 10:49:11;;;;;;;37.22;22.67;;;;;;;-140.66;100.00;55571.53;5276147;23;20091;-71
2021/10/29 10:52:21;;;;;;;28.58;21.77;;;;;;;-140.66;100.00;55571.53;4957492;29;20051;-71
2021/10/29 10:55:12;;;;;;;29.95;22.50;;;;;;;-140.66;100.00;55571.53;4946093;29;20368;-71
2021/10/29 10:58:17;;;;;;;32.88;21.25;;;;;;;-140.66;100.00;55571.53;4957095;29;20097;-72
2021/10/29 11:01:14;;;;;;;30.85;21.85;;;;;;;-140.66;100.00;55571.53;4956557;29;20035;-72
2021/10/29 11:07:15;;;;;;;32.42;21.38;;;;;;;-140.66;100.00;55571.53;4956508;29;20118;-72
2021/10/29 11:10:09;;;;;;;26.35;20.25;;;;;;;-140.66;100.00;55571.53;4957287;29;20409;-70
2021/10/29 11:13:03;;;;;;;31.38;20.33;;;;;;;-140.66;100.00;55571.53;4956960;29;20476;-72
2021/10/29 11:16:29;;;;;;;27.75;20.02;;;;;;;-140.66;100.00;55571.53;4942981;29;20051;-72
2021/10/29 11:19:25;;;;;;;32.72;22.40;;;;;;;-140.66;100.00;55571.53;4958184;28;20039;-72
2021/10/29 11:22:13;;;;;;;29.90;20.10;;;;;;;-140.66;100.00;55571.53;4956476;29;20027;-71
2021/10/29 11:24:59;;;;;;;24.45;18.90;;;;;;;-140.66;100.00;55571.53;4956274;29;20038;-71
2021/10/29 11:27:45;;;;;;;31.85;18.92;;;;;;;-140.66;100.00;55571.53;4943188;29;20129;-71
2021/10/29 11:30:40;;;;;;;28.20;18.48;;;;;;;-140.66;100.00;55571.53;4956016;29;20063;-71
2021/10/29 11:33:27;;;;;;;26.27;17.38;;;;;;;-140.66;100.00;55571.53;4957184;29;20031;-71
2021/10/29 11:36:15;;;;;;;28.40;18.27;;;;;;;-140.66;100.00;55571.53;4957550;29;20090;-70
2021/10/29 11:39:08;;;;;;;24.33;17.35;;;;;;;-140.66;100.00;55571.53;4957657;29;20122;-71
2021/10/29 11:41:54;;;;;;;26.77;18.60;;;;;;;-140.66;100.00;55571.53;4956485;29;20027;-71
2021/10/29 11:44:40;;;;;;;27.77;19.33;;;;;;;-140.66;100.00;55571.53;4942632;29;20031;-71
2021/10/29 11:47:27;;;;;;;24.05;18.02;;;;;;;-140.66;100.00;55571.53;4956793;29;20035;-71
2021/10/29 11:50:13;;;;;;;27.67;18.42;;;;;;;-140.66;100.00;55571.53;4956036;29;20524;-70
2021/10/29 11:52:59;;;;;;;33.33;19.95;;;;;;;-140.66;100.00;55571.53;4955640;29;20038;-71
2021/10/29 11:55:52;;;;;;;30.85;18.20;;;;;;;-140.66;100.00;55571.53;4942037;29;20449;-71
2021/10/29 11:59:00;;;;;;;30.85;20.75;;;;;;;-140.66;100.00;55571.53;4955506;28;20119;-71
2021/10/29 12:07:37;;;;;;;26.58;18.23;;;;;;;-140.66;100.00;55571.53;4956075;29;20023;-71
2021/10/29 12:10:23;;;;;;;30.13;18.60;;;;;;;-140.66;100.00;55571.53;4957082;29;20031;-71
2021/10/29 12:13:12;;;;;;;31.52;18.40;;;;;;;-140.66;100.00;55571.53;4955720;29;20345;-71
2021/10/29 12:15:58;;;;;;;29.30;17.30;;;;;;;-140.66;100.00;55571.53;4956403;29;20039;-70
2021/10/29 12:18:57;;;;;;;29.52;17.52;;;;;;;-140.66;100.00;55571.53;4942422;29;20042;-70
2021/10/29 12:21:46;;;;;;;27.20;19.30;;;;;;;-140.66;100.00;55571.53;4955817;29;20414;-70
2021/10/29 12:24:34;;;;;;;28.65;18.05;;;;;;;-140.66;100.00;55571.53;4956766;29;20072;-70
2021/10/29 12:27:35;;;;;;;26.20;17.38;;;;;;;-140.66;100.00;55571.53;4957108;29;20101;-71
2021/10/29 12:30:39;;;;;;;28.73;18.50;;;;;;;-140.66;100.00;55571.53;4945148;29;20062;-69
2021/10/29 13:02:03;;;;;;;28.50;19.48;;;;;;;-140.66;100.00;55571.53;5842395;23;20052;-72
2021/10/29 13:04:53;;;;;;;24.00;17.42;;;;;;;-140.66;100.00;55571.53;4941124;29;20051;-71
2021/10/29 13:07:39;;;;;;;27.05;17.23;;;;;;;-140.66;100.00;55571.53;4941767;29;20023;-71
2021/10/29 13:10:25;;;;;;;26.55;17.90;;;;;;;-140.66;100.00;55571.53;4956442;28;20031;-72
2021/10/29 13:13:20;;;;;;;23.55;17.45;;;;;;;-140.66;100.00;55571.53;4945567;29;20357;-71
2021/10/29 13:16:10;;;;;;;28.25;17.30;;;;;;;-140.66;100.00;55571.53;4957688;29;20509;-71
2021/10/29 13:25:34;;;;;;;23.85;17.55;;;;;;;-140.66;100.00;55571.53;4959751;29;20330;-71
2021/10/29 13:51:50;;;;;;;25.30;16.75;;;;;;;-140.66;100.00;55571.53;4958152;29;20409;-73
2021/10/29 14:31:01;;;;;;;25.83;16.80;;;;;;;-140.66;100.00;55571.53;4957282;29;20121;-73
2021/10/29 14:33:52;;;;;;;25.17;17.27;;;;;;;-140.66;100.00;55571.53;4957520;29;20494;-74
2021/10/29 14:36:59;;;;;;;25.67;16.80;;;;;;;-140.66;100.00;55571.53;4956777;29;20125;-74
2021/10/29 14:39:55;;;;;;;24.85;16.00;;;;;;;-140.66;100.00;55571.53;4957056;29;20031;-74
2021/10/29 14:42:47;;;;;;;23.85;16.38;;;;;;;-140.66;100.00;55571.53;4957061;29;20106;-74
2021/10/29 14:51:47;;;;;;;23.17;17.55;;;;;;;-140.66;100.00;55571.53;4957833;29;20046;-74
2021/10/29 15:15:03;;;;;;;32.55;22.60;;;;;;;-140.66;100.00;55571.53;4956633;29;20372;-73
2021/10/29 15:45:41;;;;;;;48.10;34.30;;;;;;;-140.66;100.00;55571.53;4956426;29;20035;-73
2021/10/29 15:51:03;;;;;;;53.45;37.22;;;;;;;-140.66;100.00;55571.53;4956596;29;20098;-74
2021/10/29 15:53:50;;;;;;;59.08;40.20;;;;;;;-140.66;100.00;55571.53;4955854;29;20027;-73
2021/10/29 16:17:21;;;;;;;57.92;36.05;;;;;;;-140.66;100.00;55571.53;4960097;29;20082;-74
2021/10/29 16:20:07;;;;;;;155.00;109.07;;;;;;;-140.66;100.00;55571.53;4941532;29;20374;-72
2021/10/29 17:20:19;;;;;;;38.38;27.48;;;;;;;-140.66;100.00;55571.53;4957858;29;20047;-73
2021/10/29 17:23:05;;;;;;;42.95;27.60;;;;;;;-140.66;100.00;55571.53;4959900;29;20047;-74
2021/10/29 17:25:52;;;;;;;38.58;26.10;;;;;;;-140.66;100.00;55571.53;4959425;29;20024;-73
2021/10/29 17:28:37;;;;;;;43.70;27.27;;;;;;;-140.66;100.00;55571.53;4960717;28;20037;-73
2021/10/29 17:31:23;;;;;;;44.17;27.90;;;;;;;-140.66;100.00;55571.53;4960530;28;20031;-74
2021/10/29 17:34:10;;;;;;;50.08;32.28;;;;;;;-140.66;100.00;55571.53;4945537;29;20023;-74
2021/10/29 17:36:56;;;;;;;50.47;32.13;;;;;;;-140.66;100.00;55571.53;4960208;28;20035;-74
2021/10/29 17:39:43;;;;;;;44.85;30.00;;;;;;;-140.66;100.00;55571.53;4960757;28;20031;-74
2021/10/29 17:42:30;;;;;;;45.15;28.50;;;;;;;-140.66;100.00;55571.53;4959438;29;20027;-73
2021/10/29 17:45:17;;;;;;;41.70;28.30;;;;;;;-140.66;100.00;55571.53;4960295;28;20345;-74
2021/10/29 17:48:03;;;;;;;45.03;29.75;;;;;;;-140.66;100.00;55571.53;4960701;28;20115;-73
2021/10/29 17:50:49;;;;;;;51.95;33.60;;;;;;;-140.66;100.00;55571.53;4960545;28;20118;-73
2021/10/29 17:53:34;;;;;;;54.53;36.83;;;;;;;-140.66;100.00;55571.53;4960694;28;20093;-74
2021/10/29 17:56:20;;;;;;;53.17;34.08;;;;;;;-140.66;100.00;55571.53;4959189;28;20026;-73
2021/10/29 17:59:06;;;;;;;52.03;32.80;;;;;;;-140.66;100.00;55571.53;4960201;28;20031;-73
2021/10/29 18:01:52;;;;;;;49.53;33.75;;;;;;;-140.66;100.00;55571.53;4959334;29;20042;-74
2021/10/29 18:04:38;;;;;;;51.55;32.80;;;;;;;-140.66;100.00;55571.53;4959899;28;20110;-73
2021/10/29 18:07:27;;;;;;;54.33;33.97;;;;;;;-140.66;100.00;55571.53;4960310;28;20469;-74
2021/10/29 18:10:13;;;;;;;49.78;31.10;;;;;;;-140.66;100.00;55571.53;4959919;28;20038;-73
2021/10/29 18:12:59;;;;;;;51.58;30.02;;;;;;;-140.66;100.00;55571.53;4960081;28;20042;-74
2021/10/29 18:15:48;;;;;;;43.10;28.98;;;;;;;-140.66;100.00;55571.53;4959727;28;20069;-73
2021/10/29 18:18:34;;;;;;;43.17;29.45;;;;;;;-140.66;100.00;55571.53;4958568;29;20537;-73
2021/10/29 18:21:20;;;;;;;43.38;29.13;;;;;;;-140.66;100.00;55571.53;4959644;28;20039;-73
2021/10/29 18:24:07;;;;;;;42.88;29.05;;;;;;;-140.66;100.00;55571.53;4945111;29;20314;-73
2021/10/29 18:26:53;;;;;;;40.88;28.38;;;;;;;-140.66;100.00;55571.53;4958369;29;20114;-74
2021/10/29 18:29:39;;;;;;;44.95;29.58;;;;;;;-140.66;100.00;55571.53;4959894;28;20353;-73
2021/10/29 18:32:25;;;;;;;37.38;26.95;;;;;;;-140.66;100.00;55571.53;4958304;29;20039;-74
2021/10/29 18:35:11;;;;;;;38.17;26.95;;;;;;;-140.66;100.00;55571.53;4959448;28;20035;-73
2021/10/29 18:37:56;;;;;;;42.20;27.58;;;;;;;-140.66;100.00;55571.53;4959473;28;20342;-73
2021/10/29 18:40:42;;;;;;;39.83;27.23;;;;;;;-140.66;100.00;55571.53;4959844;28;20441;-74
2021/10/29 18:43:29;;;;;;;35.25;25.50;;;;;;;-140.66;100.00;55571.53;4959275;28;20031;-73
2021/10/29 18:46:16;;;;;;;39.42;25.75;;;;;;;-140.66;100.00;55571.53;4958044;29;20110;-74
2021/10/29 18:49:03;;;;;;;40.63;28.13;;;;;;;-140.66;100.00;55571.53;4959120;28;20037;-73
2021/10/29 18:51:49;;;;;;;42.60;28.83;;;;;;;-140.66;100.00;55571.53;4959535;28;20550;-73
2021/10/29 18:54:35;;;;;;;40.00;27.77;;;;;;;-140.66;100.00;55571.53;4958637;28;20086;-73
2021/10/29 18:57:22;;;;;;;41.63;28.58;;;;;;;-140.66;100.00;55571.53;4957708;29;20327;-72
2021/10/29 19:00:09;;;;;;;42.95;27.55;;;;;;;-140.66;100.00;55571.53;4959330;28;20350;-73
2021/10/29 19:02:55;;;;;;;41.03;28.52;;;;;;;-140.66;100.00;55571.53;4943906;29;20027;-74
2021/10/29 19:05:40;;;;;;;43.72;29.73;;;;;;;-140.66;100.00;55571.53;4957894;29;20098;-74
2021/10/29 19:08:27;;;;;;;42.35;29.60;;;;;;;-140.66;100.00;55571.53;4958930;28;20035;-74
2021/10/29 19:11:13;;;;;;;40.22;27.70;;;;;;;-140.66;100.00;55571.53;4957778;29;20122;-73
2021/10/29 19:13:59;;;;;;;42.92;27.65;;;;;;;-140.66;100.00;55571.53;4957975;28;20114;-73
2021/10/29 19:16:45;;;;;;;43.63;28.95;;;;;;;-140.66;100.00;55571.53;4957389;29;20453;-73
2021/10/29 19:19:30;;;;;;;61.85;36.92;;;;;;;-140.66;100.00;55571.53;4958551;28;20500;-74
2021/10/29 19:22:19;;;;;;;46.15;31.33;;;;;;;-140.66;100.00;55571.53;4958902;28;20045;-74
2021/10/29 19:25:06;;;;;;;50.17;33.92;;;;;;;-140.66;100.00;55571.53;4958888;28;20031;-73
2021/10/29 19:27:53;;;;;;;46.92;31.83;;;;;;;-140.66;100.00;55571.53;4943548;29;20023;-73
2021/10/29 19:30:38;;;;;;;41.22;29.70;;;;;;;-140.66;100.00;55571.53;4958846;28;20059;-74
2021/10/29 19:33:24;;;;;;;44.88;29.88;;;;;;;-140.66;100.00;55571.53;4957125;29;20101;-74
2021/10/29 19:36:13;;;;;;;45.60;29.23;;;;;;;-140.66;100.00;55571.53;4958314;28;20035;-73
2021/10/29 19:39:12;;;;;;;39.83;28.35;;;;;;;-140.66;100.00;55571.53;4958445;28;20358;-74
2021/10/29 19:41:58;;;;;;;43.30;27.33;;;;;;;-140.66;100.00;55571.53;4943065;29;20042;-74
2021/10/29 19:44:43;;;;;;;40.83;27.17;;;;;;;-140.66;100.00;55571.53;4958233;28;20035;-73
2021/10/29 19:47:29;;;;;;;44.08;27.48;;;;;;;-140.66;100.00;55571.53;4958216;28;20030;-73
2021/10/29 19:50:16;;;;;;;42.75;27.50;;;;;;;-140.66;100.00;55571.53;4943334;29;20448;-75
2021/10/29 19:53:02;;;;;;;42.15;27.65;;;;;;;-140.66;100.00;55571.53;4958276;28;20083;-72
2021/10/29 19:55:48;;;;;;;41.33;29.48;;;;;;;-140.66;100.00;55571.53;4956417;29;20034;-74
2021/10/29 19:58:34;;;;;;;43.78;29.05;;;;;;;-140.66;100.00;55571.53;4958177;28;20445;-73
2021/10/29 20:01:20;;;;;;;48.45;31.55;;;;;;;-140.66;100.00;55571.53;4958032;28;20093;-73
2021/10/29 20:04:06;;;;;;;44.80;30.45;;;;;;;-140.66;100.00;55571.53;4957105;29;20027;-73
2021/10/29 20:06:52;;;;;;;42.75;29.30;;;;;;;-140.66;100.00;55571.53;4957990;28;20035;-73
2021/10/29 20:09:37;;;;;;;41.50;29.23;;;;;;;-140.66;100.00;55571.53;4957786;28;20027;-74
2021/10/29 20:12:23;;;;;;;40.72;28.17;;;;;;;-140.66;100.00;55571.53;4956808;29;20042;-73
2021/10/29 20:15:10;;;;;;;46.05;29.90;;;;;;;-140.66;100.00;55571.53;4957298;29;20098;-74
2021/10/29 20:17:56;;;;;;;39.97;28.65;;;;;;;-140.66;100.00;55571.53;4956717;28;20453;-73
2021/10/29 20:20:42;;;;;;;39.65;27.63;;;;;;;-140.66;100.00;55571.53;4957470;28;20042;-74
2021/10/29 20:23:28;;;;;;;53.97;38.53;;;;;;;-140.66;100.00;55571.53;4956591;29;20421;-73
2021/10/29 20:26:14;;;;;;;41.67;27.13;;;;;;;-140.66;100.00;55571.53;4958081;28;20027;-73
2021/10/29 20:29:00;;;;;;;38.67;26.27;;;;;;;-140.66;100.00;55571.53;4957986;28;20082;-73
2021/10/29 20:31:46;;;;;;;36.95;25.42;;;;;;;-140.66;100.00;55571.53;4957894;28;20070;-74
2021/10/29 20:34:33;;;;;;;38.58;25.90;;;;;;;-140.66;100.00;55571.53;4955897;29;20038;-74
2021/10/29 20:37:18;;;;;;;37.33;25.95;;;;;;;-140.66;100.00;55571.53;4956488;29;20023;-74
2021/10/29 20:40:05;;;;;;;38.47;26.00;;;;;;;-140.66;100.00;55571.53;4957635;28;20031;-73
2021/10/29 20:42:51;;;;;;;34.90;25.70;;;;;;;-140.66;100.00;55571.53;4941689;29;20038;-75
2021/10/29 20:45:38;;;;;;;35.42;25.13;;;;;;;-140.66;100.00;55571.53;4942834;29;20043;-74
2021/10/29 20:48:25;;;;;;;41.67;25.27;;;;;;;-140.66;100.00;55571.53;4957806;28;20042;-73
2021/10/29 20:51:11;;;;;;;40.83;26.27;;;;;;;-140.66;100.00;55571.53;4957660;28;20090;-73
2021/10/29 20:53:59;;;;;;;39.40;27.52;;;;;;;-140.66;100.00;55571.53;4957213;28;20062;-75
2021/10/29 20:56:44;;;;;;;43.38;28.33;;;;;;;-140.66;100.00;55571.53;4957445;28;20031;-73
2021/10/29 20:59:30;;;;;;;37.28;26.10;;;;;;;-140.66;100.00;55571.53;4957315;28;20106;-75
2021/10/29 21:02:21;;;;;;;45.95;28.90;;;;;;;-140.66;100.00;55571.53;4957462;28;20032;-74
2021/10/29 21:05:07;;;;;;;39.08;27.23;;;;;;;-140.66;100.00;55571.53;4942097;29;20023;-75
2021/10/29 21:07:53;;;;;;;47.47;31.00;;;;;;;-140.66;100.00;55571.53;4942346;29;20362;-74
2021/10/29 21:10:40;;;;;;;48.20;31.65;;;;;;;-140.66;100.00;55571.53;4957051;28;20373;-73
2021/10/29 21:13:26;;;;;;;48.80;34.22;;;;;;;-140.66;100.00;55571.53;4956209;29;20024;-74
2021/10/29 21:16:12;;;;;;;53.03;34.92;;;;;;;-140.66;100.00;55571.53;4943077;28;20410;-74
2021/10/29 21:18:58;;;;;;;50.75;36.60;;;;;;;-140.66;100.00;55571.53;4956876;28;20379;-74
2021/10/29 21:21:44;;;;;;;56.25;37.55;;;;;;;-140.66;100.00;55571.53;4957606;28;20031;-73
2021/10/29 21:24:30;;;;;;;57.42;37.00;;;;;;;-140.66;100.00;55571.53;4957015;28;20373;-74
2021/10/29 21:27:16;;;;;;;57.33;39.50;;;;;;;-140.66;100.00;55571.53;4957233;28;20027;-73
2021/10/29 21:30:06;;;;;;;56.00;38.28;;;;;;;-140.66;100.00;55571.53;4957299;28;20033;-74
2021/10/29 21:32:52;;;;;;;57.80;38.47;;;;;;;-140.66;100.00;55571.53;4960617;28;20048;-73
2021/10/29 21:35:38;;;;;;;61.75;40.05;;;;;;;-140.66;100.00;55571.53;4945254;29;20023;-74
2021/10/29 21:38:24;;;;;;;65.28;38.60;;;;;;;-140.66;100.00;55571.53;4960476;28;20035;-73
2021/10/29 21:41:10;;;;;;;55.30;36.75;;;;;;;-140.66;100.00;55571.53;4960420;28;20365;-74
2021/10/29 21:43:56;;;;;;;59.15;36.78;;;;;;;-140.66;100.00;55571.53;4945633;29;20362;-73
2021/10/29 21:46:43;;;;;;;56.78;38.08;;;;;;;-140.66;100.00;55571.53;4944695;29;20038;-73
2021/10/29 21:49:29;;;;;;;56.22;37.40;;;;;;;-140.66;100.00;55571.53;4960638;28;20034;-75
2021/10/29 21:52:16;;;;;;;53.60;36.47;;;;;;;-140.66;100.00;55571.53;4945397;29;20030;-73
2021/10/29 21:55:03;;;;;;;54.63;37.45;;;;;;;-140.66;100.00;55571.53;4960476;28;20034;-74
2021/10/29 21:57:48;;;;;;;57.30;38.17;;;;;;;-140.66;100.00;55571.53;4959408;29;20027;-74
2021/10/29 22:00:48;;;;;;;57.38;39.15;;;;;;;-140.66;100.00;55571.53;4945091;29;20112;-73
2021/10/29 22:03:33;;;;;;;56.28;36.67;;;;;;;-140.66;100.00;55571.53;4959198;28;20039;-75
2021/10/29 22:06:19;;;;;;;60.90;39.25;;;;;;;-140.66;100.00;55571.53;4945195;29;20451;-73
2021/10/29 22:09:06;;;;;;;60.95;39.53;;;;;;;-140.66;100.00;55571.53;4945207;29;20109;-73
2021/10/29 22:11:52;;;;;;;55.55;35.88;;;;;;;-140.66;100.00;55571.53;4944214;29;20078;-74
2021/10/29 22:14:38;;;;;;;65.03;39.00;;;;;;;-140.66;100.00;55571.53;4960355;28;20027;-73
2021/10/29 22:17:24;;;;;;;58.35;37.83;;;;;;;-140.66;100.00;55571.53;4958951;29;20039;-72
2021/10/29 22:20:10;;;;;;;56.83;38.47;;;;;;;-140.66;100.00;55571.53;4958902;28;20473;-74
2021/10/29 22:22:56;;;;;;;53.25;37.35;;;;;;;-140.66;100.00;55571.53;4959756;28;20035;-74
2021/10/29 22:25:49;;;;;;;57.92;38.20;;;;;;;-140.66;100.00;55571.53;4958619;29;20134;-74
2021/10/29 22:28:41;;;;;;;54.83;37.15;;;;;;;-140.66;100.00;55571.53;4958952;29;20023;-74
2021/10/29 22:31:27;;;;;;;60.58;39.83;;;;;;;-140.66;100.00;55571.53;4959848;28;20130;-74
2021/10/29 22:34:13;;;;;;;57.67;38.42;;;;;;;-140.66;100.00;55571.53;4959944;28;20621;-74
2021/10/29 22:36:58;;;;;;;58.30;38.35;;;;;;;-140.66;100.00;55571.53;4959216;28;20038;-73
2021/10/29 22:39:44;;;;;;;57.50;37.25;;;;;;;-140.66;100.00;55571.53;4959802;28;20030;-74
2021/10/29 22:42:30;;;;;;;56.92;38.03;;;;;;;-140.66;100.00;55571.53;4943770;29;20035;-74
2021/10/29 22:45:16;;;;;;;54.78;37.78;;;;;;;-140.66;100.00;55571.53;4944203;29;20031;-74
2021/10/29 22:48:02;;;;;;;57.25;38.85;;;;;;;-140.66;100.00;55571.53;4959582;28;20178;-74
2021/10/29 22:50:48;;;;;;;57.03;37.65;;;;;;;-140.66;100.00;55571.53;4944171;29;20039;-74
2021/10/29 22:53:34;;;;;;;64.80;40.30;;;;;;;-140.66;100.00;55571.53;4957897;29;20102;-73
2021/10/29 22:56:20;;;;;;;60.50;39.88;;;;;;;-140.66;100.00;55571.53;4959531;28;20114;-73
2021/10/29 22:59:06;;;;;;;61.05;39.65;;;;;;;-140.66;100.00;55571.53;4959175;28;20105;-73
2021/10/29 23:01:51;;;;;;;66.00;41.95;;;;;;;-140.66;100.00;55571.53;4958774;28;20465;-73
2021/10/29 23:04:37;;;;;;;62.80;40.03;;;;;;;-140.66;100.00;55571.53;4959357;28;20031;-73
2021/10/29 23:07:23;;;;;;;60.78;40.22;;;;;;;-140.66;100.00;55571.53;4958837;28;20031;-73
2021/10/29 23:10:09;;;;;;;61.25;40.13;;;;;;;-140.66;100.00;55571.53;4943564;29;20034;-73
2021/10/29 23:12:54;;;;;;;60.95;41.03;;;;;;;-140.66;100.00;55571.53;4957132;29;20102;-73
2021/10/29 23:15:40;;;;;;;63.78;41.80;;;;;;;-140.66;100.00;55571.53;4958823;28;20046;-73
2021/10/29 23:18:27;;;;;;;64.95;41.03;;;;;;;-140.66;100.00;55571.53;4958431;28;20078;-73
2021/10/29 23:21:12;;;;;;;60.70;40.47;;;;;;;-140.66;100.00;55571.53;4958908;28;20038;-73
2021/10/29 23:23:58;;;;;;;63.33;42.35;;;;;;;-140.66;100.00;55571.53;4943239;29;20023;-73
2021/10/29 23:26:44;;;;;;;66.00;41.08;;;;;;;-140.66;100.00;55571.53;4958850;28;20034;-74
2021/10/29 23:29:29;;;;;;;61.20;39.75;;;;;;;-140.66;100.00;55571.53;4958699;28;20025;-74
2021/10/29 23:32:15;;;;;;;59.83;39.40;;;;;;;-140.66;100.00;55571.53;4943239;29;20039;-73
2021/10/29 23:35:01;;;;;;;58.45;40.25;;;;;;;-140.66;100.00;55571.53;4958532;28;20038;-73
2021/10/29 23:37:47;;;;;;;59.42;39.22;;;;;;;-140.66;100.00;55571.53;4958574;28;20158;-72
2021/10/29 23:40:33;;;;;;;57.50;38.08;;;;;;;-140.66;100.00;55571.53;4957179;29;20031;-72
2021/10/29 23:43:19;;;;;;;58.92;39.92;;;;;;;-140.66;100.00;55571.53;4944489;28;20023;-73
2021/10/29 23:46:05;;;;;;;56.83;38.00;;;;;;;-140.66;100.00;55571.53;4943088;29;20479;-74
2021/10/29 23:48:51;;;;;;;59.40;38.20;;;;;;;-140.66;100.00;55571.53;4956647;29;20035;-73
2021/10/29 23:51:37;;;;;;;60.55;39.22;;;;;;;-140.66;100.00;55571.53;4958333;28;20031;-75